createdAt,value
2017-12-24T00:02:23.590Z,16.23
2017-12-24T00:04:51.053Z,15.53
2017-12-24T00:07:20.031Z,15.97
2017-12-24T00:09:47.602Z,15.17
2017-12-24T00:12:15.177Z,16.40
2017-12-24T00:14:43.413Z,19.43
2017-12-24T00:17:10.943Z,16.07
2017-12-24T00:19:38.369Z,16.60
2017-12-24T00:22:05.851Z,17.63
2017-12-24T00:24:34.092Z,16.20
2017-12-24T00:27:01.558Z,16.37
2017-12-24T00:29:29.026Z,21.83
2017-12-24T00:31:57.264Z,19.80
2017-12-24T00:34:24.740Z,18.37
2017-12-24T00:36:52.224Z,15.77
2017-12-24T00:39:20.445Z,14.57
2017-12-24T00:41:47.932Z,19.10
2017-12-24T00:44:15.412Z,19.30
2017-12-24T00:46:42.883Z,16.23
2017-12-24T00:49:11.119Z,16.10
2017-12-24T00:51:38.610Z,22.07
2017-12-24T00:54:06.851Z,16.10
2017-12-24T00:56:34.327Z,16.40
2017-12-24T00:59:01.791Z,18.80
2017-12-24T01:01:29.264Z,16.40
2017-12-24T01:03:57.491Z,14.47
2017-12-24T01:06:25.232Z,16.23
2017-12-24T01:08:52.714Z,15.37
2017-12-24T01:11:20.299Z,14.80
2017-12-24T01:13:47.777Z,15.17
2017-12-24T01:16:15.247Z,15.97
2017-12-24T01:18:43.482Z,14.00
2017-12-24T01:21:11.004Z,15.90
2017-12-24T01:23:38.468Z,15.00
2017-12-24T01:26:05.976Z,17.43
2017-12-24T01:28:33.434Z,20.07
2017-12-24T01:31:01.907Z,14.60
2017-12-24T01:33:29.379Z,18.10
2017-12-24T01:35:56.935Z,14.93
2017-12-24T01:38:24.437Z,15.30
2017-12-24T01:40:51.936Z,14.67
2017-12-24T01:43:19.566Z,15.97
2017-12-24T01:45:47.770Z,15.83
2017-12-24T01:48:15.244Z,15.63
2017-12-24T01:50:43.481Z,15.83
2017-12-24T01:53:10.979Z,17.77
2017-12-24T01:55:38.447Z,16.90
2017-12-24T01:58:05.923Z,15.60
2017-12-24T02:00:34.160Z,17.00
2017-12-24T02:03:01.649Z,21.03
2017-12-24T02:05:29.198Z,16.60
2017-12-24T02:07:56.679Z,18.20
2017-12-24T02:10:24.213Z,17.50
2017-12-24T02:12:51.686Z,17.53
2017-12-24T02:15:19.927Z,14.60
2017-12-24T02:17:47.412Z,15.83
2017-12-24T02:20:14.884Z,21.00
2017-12-24T02:22:43.144Z,17.17
2017-12-24T02:25:10.606Z,18.87
2017-12-24T02:27:38.129Z,17.70
2017-12-24T02:30:05.592Z,17.30
2017-12-24T02:32:33.183Z,17.60
2017-12-24T02:35:00.733Z,19.27
2017-12-24T02:37:28.203Z,16.50
2017-12-24T02:39:55.680Z,21.33
2017-12-24T02:42:23.936Z,19.87
2017-12-24T02:44:51.410Z,15.87
2017-12-24T02:47:19.651Z,16.50
2017-12-24T02:49:47.123Z,18.27
2017-12-24T02:52:16.122Z,18.00
2017-12-24T02:54:43.600Z,20.50
2017-12-24T02:57:11.858Z,17.03
2017-12-24T02:59:40.107Z,18.13
2017-12-24T03:02:07.583Z,20.10
2017-12-24T03:04:35.832Z,20.03
2017-12-24T03:07:03.316Z,17.53
2017-12-24T03:09:30.787Z,16.57
2017-12-24T03:11:58.254Z,16.90
2017-12-24T03:14:26.496Z,15.47
2017-12-24T03:16:54.082Z,15.70
2017-12-24T03:19:22.320Z,18.90
2017-12-24T03:21:49.798Z,17.07
2017-12-24T03:24:17.272Z,16.10
2017-12-24T03:26:44.738Z,16.90
2017-12-24T03:29:12.970Z,16.40
2017-12-24T03:31:40.464Z,15.73
2017-12-24T03:34:08.731Z,16.97
2017-12-24T03:36:36.207Z,15.37
2017-12-24T03:39:03.664Z,16.70
2017-12-24T03:41:31.138Z,19.83
2017-12-24T03:43:59.382Z,15.87
2017-12-24T03:46:26.883Z,16.80
2017-12-24T03:48:54.364Z,15.77
2017-12-24T03:51:21.834Z,17.87
2017-12-24T03:53:49.338Z,17.07
2017-12-24T03:56:16.799Z,16.33
2017-12-24T03:58:45.034Z,17.20
2017-12-24T04:01:12.511Z,16.93
2017-12-24T04:03:39.998Z,17.33
2017-12-24T04:06:08.226Z,17.63
2017-12-24T04:08:35.810Z,16.23
2017-12-24T04:11:04.790Z,15.43
2017-12-24T04:13:32.265Z,17.80
2017-12-24T04:15:59.727Z,15.83
2017-12-24T04:18:27.204Z,17.70
2017-12-24T04:20:55.446Z,15.17
2017-12-24T04:23:22.916Z,16.53
2017-12-24T04:25:51.882Z,16.37
2017-12-24T04:28:19.373Z,17.87
2017-12-24T04:30:46.843Z,15.60
2017-12-24T04:33:15.083Z,16.93
2017-12-24T04:35:42.550Z,16.17
2017-12-24T04:38:10.035Z,16.80
2017-12-24T04:40:38.258Z,17.03
2017-12-24T04:43:05.735Z,15.67
2017-12-24T04:45:33.194Z,18.33
2017-12-24T04:48:00.674Z,17.10
2017-12-24T04:50:28.134Z,19.57
2017-12-24T04:52:55.614Z,17.50
2017-12-24T04:55:23.842Z,17.70
2017-12-24T04:57:51.310Z,16.10
2017-12-24T05:00:18.774Z,18.93
2017-12-24T05:02:46.246Z,16.47
2017-12-24T05:05:13.710Z,20.40
2017-12-24T05:07:41.170Z,15.53
2017-12-24T05:10:09.406Z,18.47
2017-12-24T05:12:36.874Z,15.33
2017-12-24T05:15:04.331Z,16.57
2017-12-24T05:17:31.814Z,16.30
2017-12-24T05:20:00.053Z,19.50
2017-12-24T05:22:27.518Z,15.03
2017-12-24T05:24:54.982Z,14.23
2017-12-24T05:27:22.556Z,16.83
2017-12-24T05:29:50.120Z,16.20
2017-12-24T05:32:17.591Z,15.93
2017-12-24T05:34:45.863Z,13.53
2017-12-24T05:37:13.339Z,16.43
2017-12-24T05:39:41.562Z,14.30
2017-12-24T05:42:09.022Z,13.33
2017-12-24T05:44:36.503Z,21.00
2017-12-24T05:47:03.963Z,15.07
2017-12-24T05:49:31.440Z,16.90
2017-12-24T05:51:59.667Z,17.40
2017-12-24T05:54:27.147Z,14.10
2017-12-24T05:56:54.619Z,18.03
2017-12-24T05:59:22.102Z,14.63
2017-12-24T06:01:50.323Z,16.40
2017-12-24T06:04:17.898Z,14.73
2017-12-24T06:06:45.371Z,15.63
2017-12-24T06:09:12.846Z,18.00
2017-12-24T06:11:41.082Z,13.90
2017-12-24T06:14:08.670Z,16.30
2017-12-24T06:16:36.130Z,15.43
2017-12-24T06:19:04.440Z,14.07
2017-12-24T06:21:31.914Z,16.20
2017-12-24T06:23:59.389Z,10.47
2017-12-24T06:26:26.860Z,12.67
2017-12-24T06:28:54.347Z,14.07
2017-12-24T06:31:22.602Z,15.00
2017-12-24T06:33:50.849Z,16.00
2017-12-24T06:36:18.320Z,14.10
2017-12-24T06:38:46.560Z,16.27
2017-12-24T06:41:14.019Z,17.03
2017-12-24T06:43:41.490Z,14.50
2017-12-24T06:46:08.966Z,14.77
2017-12-24T06:48:36.547Z,14.40
2017-12-24T06:51:04.028Z,16.03
2017-12-24T06:53:32.558Z,15.53
2017-12-24T06:56:00.024Z,12.77
2017-12-24T06:58:27.507Z,14.97
2017-12-24T07:00:55.079Z,18.20
2017-12-24T07:03:22.556Z,17.43
2017-12-24T07:05:50.786Z,14.33
2017-12-24T07:08:18.264Z,14.23
2017-12-24T07:10:47.258Z,16.17
2017-12-24T07:13:16.252Z,15.90
2017-12-24T07:15:43.710Z,15.67
2017-12-24T07:18:11.188Z,14.03
2017-12-24T07:20:39.434Z,14.07
2017-12-24T07:23:06.898Z,15.50
2017-12-24T07:25:34.375Z,15.73
2017-12-24T07:28:02.608Z,13.67
2017-12-24T07:30:30.088Z,12.70
2017-12-24T07:32:57.591Z,12.70
2017-12-24T07:35:25.815Z,13.60
2017-12-24T07:37:53.291Z,11.63
2017-12-24T07:40:20.841Z,13.03
2017-12-24T07:42:48.316Z,12.07
2017-12-24T07:45:15.783Z,11.87
2017-12-24T07:47:44.024Z,11.67
2017-12-24T07:50:11.484Z,9.73
2017-12-24T07:52:38.947Z,10.83
2017-12-24T07:55:06.432Z,10.90
2017-12-24T07:57:33.891Z,13.83
2017-12-24T08:00:02.118Z,8.70
2017-12-24T08:02:29.588Z,8.83
2017-12-24T08:04:57.066Z,11.30
2017-12-24T08:07:24.555Z,12.70
2017-12-24T08:09:52.778Z,13.77
2017-12-24T08:12:20.238Z,10.07
2017-12-24T08:14:47.816Z,9.50
2017-12-24T08:17:16.811Z,12.37
2017-12-24T08:19:44.286Z,10.20
2017-12-24T08:22:12.908Z,11.53
2017-12-24T08:24:40.408Z,9.53
2017-12-24T08:27:07.871Z,8.60
2017-12-24T08:29:35.354Z,9.53
2017-12-24T08:32:03.590Z,10.87
2017-12-24T08:34:31.074Z,8.67
2017-12-24T08:36:58.537Z,10.43
2017-12-24T08:39:26.779Z,10.73
2017-12-24T08:41:54.238Z,9.27
2017-12-24T08:44:22.472Z,8.30
2017-12-24T08:46:49.926Z,10.20
2017-12-24T08:49:17.390Z,6.87
2017-12-24T08:51:44.846Z,6.73
2017-12-24T08:54:12.323Z,5.90
2017-12-24T08:56:39.792Z,5.43
2017-12-24T08:59:07.272Z,8.53
2017-12-24T09:01:34.738Z,6.50
2017-12-24T09:04:02.221Z,8.50
2017-12-24T09:06:30.452Z,9.23
2017-12-24T09:08:57.968Z,6.57
2017-12-24T09:11:26.256Z,5.83
2017-12-24T09:13:53.722Z,8.73
2017-12-24T09:16:21.184Z,6.13
2017-12-24T09:18:48.674Z,5.43
2017-12-24T09:21:16.153Z,7.50
2017-12-24T09:23:43.611Z,7.73
2017-12-24T09:26:11.088Z,8.20
2017-12-24T09:28:39.319Z,6.97
2017-12-24T09:31:06.889Z,6.73
2017-12-24T09:33:34.463Z,5.70
2017-12-24T09:36:02.019Z,7.03
2017-12-24T09:38:29.581Z,6.07
2017-12-24T09:40:57.043Z,5.47
2017-12-24T09:43:24.494Z,4.90
2017-12-24T09:45:52.774Z,10.70
2017-12-24T09:48:20.231Z,5.37
2017-12-24T09:50:47.703Z,5.10
2017-12-24T09:53:15.173Z,4.93
2017-12-24T09:55:43.395Z,7.33
2017-12-24T09:58:10.866Z,5.10
2017-12-24T10:00:38.331Z,4.77
2017-12-24T10:03:05.861Z,6.43
2017-12-24T10:05:34.889Z,4.70
2017-12-24T10:08:02.341Z,5.77
2017-12-24T10:10:29.809Z,4.30
2017-12-24T10:12:57.321Z,3.90
2017-12-24T10:15:24.798Z,3.93
2017-12-24T10:17:52.290Z,4.60
2017-12-24T10:20:21.269Z,4.43
2017-12-24T10:22:48.725Z,4.00
2017-12-24T10:25:16.202Z,3.37
2017-12-24T10:27:43.758Z,3.50
2017-12-24T10:30:11.239Z,8.20
2017-12-24T10:32:39.493Z,3.17
2017-12-24T10:35:06.967Z,2.53
2017-12-24T10:37:35.193Z,3.03
2017-12-24T10:40:02.662Z,3.33
2017-12-24T10:42:30.124Z,5.50
2017-12-24T10:44:57.598Z,2.27
2017-12-24T10:47:25.058Z,2.40
2017-12-24T10:49:52.538Z,2.33
2017-12-24T10:52:20.779Z,3.23
2017-12-24T10:54:48.354Z,2.60
2017-12-24T10:57:15.816Z,2.60
2017-12-24T11:00:02.765Z,2.70
2017-12-24T11:02:30.999Z,3.63
2017-12-24T11:04:58.566Z,1.97
2017-12-24T11:07:26.843Z,2.70
2017-12-24T11:09:54.433Z,2.00
2017-12-24T11:12:22.679Z,1.90
2017-12-24T11:14:50.146Z,1.70
2017-12-24T11:17:17.609Z,2.13
2017-12-24T11:19:45.087Z,3.40
2017-12-24T11:22:12.669Z,1.57
2017-12-24T11:24:40.906Z,2.60
2017-12-24T11:27:09.138Z,1.77
2017-12-24T11:29:36.639Z,1.63
2017-12-24T11:32:04.899Z,2.50
2017-12-24T11:34:32.359Z,2.60
2017-12-24T11:36:59.910Z,3.30
2017-12-24T11:39:27.366Z,2.80
2017-12-24T11:41:54.935Z,2.30
2017-12-24T11:44:22.407Z,2.00
2017-12-24T11:46:49.885Z,1.87
2017-12-24T11:49:18.152Z,2.77
2017-12-24T11:51:46.427Z,1.50
2017-12-24T11:54:14.659Z,2.90
2017-12-24T11:56:42.145Z,5.37
2017-12-24T11:59:09.607Z,2.10
2017-12-24T12:01:37.336Z,2.60
2017-12-24T12:04:04.792Z,3.77
2017-12-24T12:06:32.264Z,4.10
2017-12-24T12:08:59.754Z,3.43
2017-12-24T12:11:27.264Z,3.23
2017-12-24T12:13:54.727Z,2.40
2017-12-24T12:16:22.215Z,4.70
2017-12-24T12:18:49.691Z,3.67
2017-12-24T12:21:17.170Z,4.10
2017-12-24T12:23:46.079Z,2.93
2017-12-24T12:26:13.579Z,2.57
2017-12-24T12:28:41.042Z,2.37
2017-12-24T12:31:08.517Z,2.97
2017-12-24T12:33:36.045Z,2.43
2017-12-24T12:36:03.545Z,2.27
2017-12-24T12:38:31.771Z,2.50
2017-12-24T12:40:59.270Z,2.73
2017-12-24T12:43:26.729Z,2.10
2017-12-24T12:45:54.976Z,2.67
2017-12-24T12:48:22.455Z,1.73
2017-12-24T12:50:49.933Z,2.60
2017-12-24T12:53:18.174Z,3.63
2017-12-24T12:55:45.656Z,3.73
2017-12-24T12:58:13.116Z,2.20
2017-12-24T13:00:41.356Z,2.87
2017-12-24T13:03:08.824Z,3.03
2017-12-24T13:05:36.319Z,2.40
2017-12-24T13:08:04.568Z,2.90
2017-12-24T13:10:32.823Z,1.93
2017-12-24T13:13:00.349Z,2.30
2017-12-24T13:15:27.827Z,1.77
2017-12-24T13:17:55.333Z,2.30
2017-12-24T13:20:22.804Z,2.13
2017-12-24T13:22:50.305Z,1.87
2017-12-24T13:25:17.762Z,2.43
2017-12-24T13:27:45.231Z,2.03
2017-12-24T13:30:12.737Z,2.50
2017-12-24T13:32:41.095Z,2.43
2017-12-24T13:35:08.667Z,2.20
2017-12-24T13:37:36.126Z,2.07
2017-12-24T13:40:03.681Z,2.93
2017-12-24T13:42:31.147Z,2.67
2017-12-24T13:44:58.870Z,2.53
2017-12-24T13:47:27.245Z,3.03
2017-12-24T13:49:55.513Z,3.40
2017-12-24T13:52:23.132Z,2.20
2017-12-24T13:54:51.371Z,2.90
2017-12-24T13:57:18.851Z,2.40
2017-12-24T13:59:46.334Z,2.47
2017-12-24T14:02:14.563Z,2.80
2017-12-24T14:04:42.053Z,4.20
2017-12-24T14:07:09.546Z,2.47
2017-12-24T14:09:37.101Z,2.40
2017-12-24T14:12:04.575Z,2.90
2017-12-24T14:14:32.042Z,4.47
2017-12-24T14:16:59.528Z,4.27
2017-12-24T14:19:27.196Z,3.60
2017-12-24T14:21:54.674Z,4.90
2017-12-24T14:24:22.139Z,5.60
2017-12-24T14:26:50.366Z,4.73
2017-12-24T14:29:17.897Z,3.33
2017-12-24T14:31:45.370Z,3.17
2017-12-24T14:34:12.839Z,2.43
2017-12-24T14:36:40.615Z,5.73
2017-12-24T14:39:09.000Z,2.73
2017-12-24T14:41:36.580Z,3.40
2017-12-24T14:44:04.063Z,4.80
2017-12-24T14:46:32.395Z,2.80
2017-12-24T14:48:59.908Z,3.93
2017-12-24T14:51:27.479Z,3.63
2017-12-24T14:53:54.939Z,4.60
2017-12-24T14:56:22.469Z,2.83
2017-12-24T14:58:50.703Z,2.53
2017-12-24T15:01:18.286Z,2.73
2017-12-24T15:03:45.842Z,2.37
2017-12-24T15:06:14.160Z,2.77
2017-12-24T15:08:42.429Z,2.47
2017-12-24T15:11:09.999Z,3.33
2017-12-24T15:13:37.467Z,2.07
2017-12-24T15:16:04.930Z,1.73
2017-12-24T15:18:32.414Z,5.00
2017-12-24T15:20:59.895Z,2.07
2017-12-24T15:23:27.412Z,2.23
2017-12-24T15:25:54.902Z,2.50
2017-12-24T15:28:23.140Z,2.37
2017-12-24T15:30:50.695Z,2.70
2017-12-24T15:33:18.202Z,3.03
2017-12-24T15:35:45.678Z,3.33
2017-12-24T15:38:13.197Z,2.73
2017-12-24T15:40:40.718Z,2.30
2017-12-24T15:43:08.969Z,4.00
2017-12-24T15:45:36.474Z,3.10
2017-12-24T15:48:04.016Z,3.90
2017-12-24T15:50:32.238Z,2.43
2017-12-24T15:52:59.711Z,3.30
2017-12-24T15:55:27.223Z,3.27
2017-12-24T15:57:54.729Z,3.53
2017-12-24T16:00:22.218Z,4.23
2017-12-24T16:02:50.470Z,3.33
2017-12-24T16:05:17.938Z,3.97
2017-12-24T16:07:45.410Z,3.10
2017-12-24T16:10:13.647Z,3.13
2017-12-24T16:12:41.105Z,4.17
2017-12-24T16:15:08.581Z,4.70
2017-12-24T16:17:36.051Z,4.20
2017-12-24T16:20:03.509Z,4.43
2017-12-24T16:22:30.983Z,4.30
2017-12-24T16:24:59.232Z,5.43
2017-12-24T16:27:26.782Z,4.23
2017-12-24T16:29:54.250Z,4.00
2017-12-24T16:32:21.718Z,4.47
2017-12-24T16:34:49.178Z,4.37
2017-12-24T16:37:16.656Z,5.03
2017-12-24T16:39:44.886Z,5.20
2017-12-24T16:42:12.411Z,7.40
2017-12-24T16:44:39.919Z,7.13
2017-12-24T16:47:07.477Z,7.10
2017-12-24T16:49:35.033Z,6.17
2017-12-24T16:52:03.280Z,7.07
2017-12-24T16:54:30.767Z,7.10
2017-12-24T16:56:58.235Z,6.67
2017-12-24T16:59:25.698Z,6.00
2017-12-24T17:01:53.172Z,9.20
2017-12-24T17:04:21.423Z,7.40
2017-12-24T17:06:49.245Z,6.40
2017-12-24T17:09:17.011Z,6.83
2017-12-24T17:11:44.488Z,8.03
2017-12-24T17:14:11.956Z,10.30
2017-12-24T17:16:39.420Z,8.63
2017-12-24T17:19:06.881Z,7.90
2017-12-24T17:21:34.348Z,10.33
2017-12-24T17:24:02.623Z,6.53
2017-12-24T17:26:30.082Z,6.67
2017-12-24T17:28:57.564Z,7.00
2017-12-24T17:31:26.091Z,6.17
2017-12-24T17:33:53.559Z,7.07
2017-12-24T17:36:21.019Z,9.30
2017-12-24T17:38:48.486Z,8.77
2017-12-24T17:41:15.960Z,7.17
2017-12-24T17:43:43.471Z,8.13
2017-12-24T17:46:10.934Z,6.73
2017-12-24T17:48:38.399Z,7.93
2017-12-24T17:51:05.862Z,5.97
2017-12-24T17:53:33.337Z,7.20
2017-12-24T17:56:00.812Z,6.93
2017-12-24T17:58:28.275Z,6.80
2017-12-24T18:00:55.736Z,8.00
2017-12-24T18:03:23.205Z,6.60
2017-12-24T18:05:51.586Z,6.07
2017-12-24T18:08:19.089Z,6.87
2017-12-24T18:10:46.639Z,6.60
2017-12-24T18:13:14.122Z,8.17
2017-12-24T18:15:41.595Z,7.83
2017-12-24T18:18:09.072Z,5.83
2017-12-24T18:20:37.438Z,5.80
2017-12-24T18:23:05.704Z,5.77
2017-12-24T18:25:33.163Z,5.47
2017-12-24T18:28:00.631Z,5.57
2017-12-24T18:30:28.097Z,4.77
2017-12-24T18:32:55.570Z,6.70
2017-12-24T18:35:23.807Z,5.83
2017-12-24T18:37:51.283Z,5.53
2017-12-24T18:40:18.743Z,4.33
2017-12-24T18:42:47.834Z,5.73
2017-12-24T18:45:16.814Z,4.97
2017-12-24T18:47:44.305Z,4.87
2017-12-24T18:50:12.534Z,5.27
2017-12-24T18:52:40.019Z,4.97
2017-12-24T18:55:07.501Z,7.17
2017-12-24T18:57:35.763Z,5.80
2017-12-24T19:00:03.230Z,5.83
2017-12-24T19:02:31.471Z,4.47
2017-12-24T19:04:58.927Z,5.37
2017-12-24T19:07:26.402Z,5.20
2017-12-24T19:09:53.870Z,7.63
2017-12-24T19:12:21.326Z,4.80
2017-12-24T19:14:48.798Z,6.23
2017-12-24T19:17:17.026Z,5.90
2017-12-24T19:19:44.503Z,5.40
2017-12-24T19:22:12.073Z,3.93
2017-12-24T19:24:39.626Z,4.40
2017-12-24T19:27:07.054Z,5.30
2017-12-24T19:29:34.522Z,5.00
2017-12-24T19:32:01.983Z,4.90
2017-12-24T19:34:29.455Z,6.10
2017-12-24T19:36:56.955Z,6.10
2017-12-24T19:39:25.213Z,8.17
2017-12-24T19:41:52.696Z,4.47
2017-12-24T19:44:20.171Z,5.50
2017-12-24T19:46:47.627Z,6.97
2017-12-24T19:49:15.095Z,7.97
2017-12-24T19:51:42.558Z,4.80
2017-12-24T19:54:10.036Z,4.57
2017-12-24T19:56:37.501Z,4.60
2017-12-24T19:59:04.975Z,6.97
2017-12-24T20:01:32.435Z,5.50
2017-12-24T20:03:59.936Z,6.50
2017-12-24T20:06:27.406Z,5.50
2017-12-24T20:08:54.875Z,6.90
2017-12-24T20:11:22.353Z,5.33
2017-12-24T20:13:50.589Z,6.63
2017-12-24T20:16:18.060Z,5.13
2017-12-24T20:18:45.521Z,8.13
2017-12-24T20:21:12.999Z,6.67
2017-12-24T20:23:41.331Z,4.80
2017-12-24T20:26:08.868Z,5.00
2017-12-24T20:28:36.325Z,6.70
2017-12-24T20:31:04.614Z,5.50
2017-12-24T20:33:32.843Z,6.00
2017-12-24T20:36:00.311Z,6.17
2017-12-24T20:38:27.802Z,5.50
2017-12-24T20:40:56.035Z,6.10
2017-12-24T20:43:23.580Z,7.90
2017-12-24T20:45:51.054Z,5.80
2017-12-24T20:48:18.577Z,6.27
2017-12-24T20:50:46.060Z,5.60
2017-12-24T20:53:13.536Z,8.13
2017-12-24T20:55:41.037Z,6.70
2017-12-24T20:58:09.289Z,5.43
2017-12-24T21:00:36.798Z,6.10
2017-12-24T21:03:04.281Z,4.57
2017-12-24T21:05:31.806Z,5.43
2017-12-24T21:07:59.286Z,6.37
2017-12-24T21:10:26.777Z,6.00
2017-12-24T21:12:54.306Z,5.40
2017-12-24T21:15:21.768Z,4.87
2017-12-24T21:17:49.254Z,5.83
2017-12-24T21:20:16.824Z,5.57
2017-12-24T21:22:45.799Z,7.23
2017-12-24T21:25:13.255Z,5.80
2017-12-24T21:27:40.731Z,5.50
2017-12-24T21:30:08.204Z,5.00
2017-12-24T21:32:35.676Z,6.10
2017-12-24T21:35:03.901Z,5.20
2017-12-24T21:37:31.382Z,5.77
2017-12-24T21:39:58.847Z,5.83
2017-12-24T21:42:26.351Z,6.40
2017-12-24T21:44:53.814Z,5.13
2017-12-24T21:47:21.297Z,7.53
2017-12-24T21:49:48.795Z,5.90
2017-12-24T21:52:17.030Z,5.73
2017-12-24T21:54:44.515Z,4.87
2017-12-24T21:57:12.235Z,5.23
2017-12-24T21:59:39.770Z,4.30
2017-12-24T22:02:07.234Z,4.70
2017-12-24T22:04:34.698Z,5.00
2017-12-24T22:07:02.195Z,7.57
2017-12-24T22:09:29.683Z,4.33
2017-12-24T22:11:57.955Z,4.77
2017-12-24T22:14:26.238Z,4.00
2017-12-24T22:16:54.531Z,4.83
2017-12-24T22:19:22.756Z,5.40
2017-12-24T22:21:50.238Z,4.43
2017-12-24T22:24:17.741Z,4.77
2017-12-24T22:26:45.234Z,4.77
2017-12-24T22:29:12.671Z,5.33
2017-12-24T22:31:40.143Z,4.30
2017-12-24T22:34:07.612Z,4.17
2017-12-24T22:36:35.076Z,5.57
2017-12-24T22:39:02.543Z,4.93
2017-12-24T22:41:30.020Z,4.93
2017-12-24T22:43:58.251Z,5.10
2017-12-24T22:46:25.718Z,5.57
2017-12-24T22:48:53.191Z,5.13
2017-12-24T22:51:20.642Z,6.10
2017-12-24T22:53:48.121Z,5.77
2017-12-24T22:56:15.567Z,5.10
2017-12-24T22:58:43.043Z,5.30
2017-12-24T23:01:11.343Z,5.47
2017-12-24T23:03:39.015Z,4.90
2017-12-24T23:06:06.522Z,5.20
2017-12-24T23:08:34.000Z,7.80
2017-12-24T23:11:02.233Z,6.43
2017-12-24T23:13:29.723Z,4.97
2017-12-24T23:15:57.167Z,5.23
2017-12-24T23:18:24.655Z,4.27
2017-12-24T23:20:52.892Z,3.77
2017-12-24T23:23:20.351Z,5.70
2017-12-24T23:25:47.915Z,4.67
2017-12-24T23:28:15.382Z,2.80
2017-12-24T23:30:43.203Z,3.20
2017-12-24T23:33:11.426Z,3.83
2017-12-24T23:35:38.901Z,3.07
2017-12-24T23:38:07.152Z,3.63
2017-12-24T23:40:34.610Z,3.00
2017-12-24T23:43:02.083Z,2.70
2017-12-24T23:45:29.570Z,3.13
2017-12-24T23:47:57.811Z,3.10
2017-12-24T23:50:25.290Z,2.33
2017-12-24T23:52:53.542Z,2.33
2017-12-24T23:55:21.061Z,2.60
2017-12-24T23:57:48.615Z,2.60
